Time;durP1;ratioP1;P1;durP2;ratioP2;P2;SDS_P1;SDS_P2;PMS_P1;PMS_P2;Temp;Humidity;BMP_temperature;BMP_pressure;BME280_temperature;BME280_humidity;BME280_pressure;Samples;Min_cycle;Max_cycle;Signal;HPM_P1;HPM_P2
2022/06/03 00:00:20;;;;;;;13.90;5.03;;;11.40;99.90;;;;;;5056563;28;20053;-78
2022/06/03 00:03:13;;;;;;;14.55;5.03;;;11.30;99.90;;;;;;5055351;28;20037;-79
2022/06/03 00:06:10;;;;;;;13.68;5.40;;;11.30;99.90;;;;;;5055418;28;20079;-78
2022/06/03 00:08:48;;;;;;;9.90;5.32;;;11.20;99.90;;;;;;5056443;28;20060;-78
2022/06/03 00:11:20;;;;;;;10.13;5.13;;;11.20;99.90;;;;;;5054955;28;20049;-78
2022/06/03 00:14:07;;;;;;;11.90;5.63;;;11.20;99.90;;;;;;5056071;28;20504;-78
2022/06/03 00:16:51;;;;;;;14.25;5.63;;;11.10;99.90;;;;;;5056145;28;20049;-78
2022/06/03 00:19:56;;;;;;;11.73;5.32;;;11.10;99.90;;;;;;5055047;28;20076;-78
2022/06/03 00:22:52;;;;;;;11.32;5.60;;;11.10;99.90;;;;;;5054390;28;20140;-78
2022/06/03 00:25:51;;;;;;;14.93;6.00;;;11.10;99.90;;;;;;5054850;28;20056;-78
2022/06/03 00:28:35;;;;;;;11.43;6.55;;;11.10;99.90;;;;;;5054756;28;20396;-82
2022/06/03 00:31:20;;;;;;;16.17;6.15;;;11.10;99.90;;;;;;5054617;28;20045;-78
2022/06/03 00:33:48;;;;;;;13.25;5.95;;;11.10;99.90;;;;;;5056136;28;20049;-78
2022/06/03 00:36:58;;;;;;;13.57;5.78;;;11.10;99.90;;;;;;5055650;28;20128;-78
2022/06/03 00:39:43;;;;;;;9.93;5.78;;;11.00;99.90;;;;;;5052708;28;20408;-79
2022/06/03 00:42:33;;;;;;;13.85;6.00;;;11.00;99.90;;;;;;5055580;28;20045;-79
2022/06/03 00:45:01;;;;;;;14.30;6.30;;;11.00;99.90;;;;;;5055861;28;20091;-78
2022/06/03 00:47:48;;;;;;;15.60;5.60;;;10.90;99.90;;;;;;5054620;28;20037;-79
2022/06/03 00:50:40;;;;;;;12.75;5.93;;;10.90;99.90;;;;;;5054285;28;20045;-78
2022/06/03 00:53:36;;;;;;;12.80;5.63;;;10.70;99.90;;;;;;5054127;28;20053;-78
2022/06/03 00:56:05;;;;;;;9.35;5.38;;;10.50;99.90;;;;;;5035671;28;20404;-78
2022/06/03 00:58:38;;;;;;;13.13;6.10;;;10.40;99.90;;;;;;5054469;28;20049;-78
2022/06/03 01:01:07;;;;;;;12.20;5.57;;;10.50;99.90;;;;;;5054257;28;20438;-78
2022/06/03 01:03:40;;;;;;;8.63;5.05;;;10.40;99.90;;;;;;5053850;28;20175;-78
2022/06/03 01:06:15;;;;;;;8.32;4.90;;;10.30;99.90;;;;;;5054046;28;20124;-78
2022/06/03 01:08:50;;;;;;;12.05;5.40;;;10.20;99.90;;;;;;5053448;28;20045;-78
2022/06/03 01:11:57;;;;;;;10.90;6.15;;;10.10;99.90;;;;;;5053733;28;20048;-78
2022/06/03 01:14:50;;;;;;;10.25;5.30;;;10.10;99.90;;;;;;5053750;28;20061;-78
2022/06/03 01:17:34;;;;;;;11.65;5.68;;;9.90;99.90;;;;;;5054128;28;20057;-78
2022/06/03 01:20:03;;;;;;;15.07;6.75;;;9.90;99.90;;;;;;5053610;28;20053;-78
2022/06/03 01:22:59;;;;;;;12.05;7.53;;;9.80;99.90;;;;;;5055163;28;20048;-78
2022/06/03 01:25:40;;;;;;;13.23;6.80;;;9.80;99.90;;;;;;5054924;28;20045;-78
2022/06/03 01:28:11;;;;;;;16.85;7.32;;;9.70;99.90;;;;;;5053695;28;20045;-78
2022/06/03 01:30:57;;;;;;;12.98;6.47;;;9.70;99.90;;;;;;5054718;28;20091;-77
2022/06/03 01:33:48;;;;;;;14.20;6.35;;;9.70;99.90;;;;;;5053501;28;20053;-78
2022/06/03 01:36:55;;;;;;;11.02;6.53;;;9.60;99.90;;;;;;5053591;28;20049;-78
2022/06/03 01:39:32;;;;;;;12.07;7.03;;;9.60;99.90;;;;;;5018456;28;20057;-78
2022/06/03 01:42:32;;;;;;;12.85;7.55;;;9.50;99.90;;;;;;5054394;28;20055;-78
2022/06/03 01:45:14;;;;;;;19.50;7.90;;;9.50;99.90;;;;;;5054556;28;20106;-78
2022/06/03 01:47:45;;;;;;;17.60;7.93;;;9.50;99.90;;;;;;5053405;28;20114;-78
2022/06/03 01:50:17;;;;;;;16.05;9.25;;;9.50;99.90;;;;;;5054485;28;20099;-78
2022/06/03 01:53:09;;;;;;;16.95;9.13;;;9.50;99.90;;;;;;5054108;28;20110;-78
2022/06/03 01:56:02;;;;;;;20.90;9.63;;;9.60;99.90;;;;;;5053025;28;20068;-78
2022/06/03 01:58:46;;;;;;;17.80;10.10;;;9.60;99.90;;;;;;5053106;28;20049;-78
2022/06/03 02:01:49;;;;;;;21.10;10.52;;;9.60;99.90;;;;;;5052814;28;20037;-76
2022/06/03 02:05:03;;;;;;;23.30;10.55;;;9.70;99.90;;;;;;5054207;28;20084;-77
2022/06/03 02:08:03;;;;;;;23.85;11.05;;;9.70;99.90;;;;;;5000009;28;20129;-77
2022/06/03 02:11:02;;;;;;;30.48;12.05;;;9.80;99.90;;;;;;4983764;28;20058;-77
2022/06/03 02:13:50;;;;;;;31.05;13.30;;;9.80;99.90;;;;;;5052689;28;20052;-77
2022/06/03 02:16:30;;;;;;;28.38;13.05;;;9.90;99.90;;;;;;5052885;28;20053;-77
2022/06/03 02:19:07;;;;;;;27.13;12.45;;;9.80;99.90;;;;;;5053903;28;20048;-78
2022/06/03 02:21:36;;;;;;;31.98;14.63;;;9.90;99.90;;;;;;5053799;28;20493;-78
2022/06/03 02:24:38;;;;;;;32.20;14.95;;;9.90;99.90;;;;;;5052428;28;20551;-78
2022/06/03 02:27:04;;;;;;;27.60;14.32;;;9.90;99.90;;;;;;5052781;28;20049;-78
2022/06/03 02:33:21;;;;;;;31.25;15.10;;;9.90;99.90;;;;;;5053724;28;20045;-78
2022/06/03 02:35:47;;;;;;;26.67;14.60;;;9.90;99.90;;;;;;5053676;28;20040;-78
2022/06/03 02:38:34;;;;;;;38.33;15.15;;;9.90;99.90;;;;;;5052370;28;20057;-78
2022/06/03 02:41:36;;;;;;;32.42;14.52;;;9.80;99.90;;;;;;5052581;28;20075;-78
2022/06/03 02:44:36;;;;;;;35.35;15.00;;;9.80;99.90;;;;;;5052623;28;20052;-77
2022/06/03 02:47:20;;;;;;;29.98;15.05;;;9.80;99.90;;;;;;5053692;28;20094;-77
2022/06/03 02:50:13;;;;;;;34.40;14.75;;;9.80;99.90;;;;;;5053329;28;20472;-77
2022/06/03 02:53:03;;;;;;;29.88;16.15;;;9.80;99.90;;;;;;5052146;28;20053;-77
2022/06/03 02:55:58;;;;;;;36.10;16.20;;;9.80;99.90;;;;;;5052047;28;20492;-77
2022/06/03 02:58:43;;;;;;;36.47;15.38;;;9.80;99.90;;;;;;5051926;28;20055;-77
2022/06/03 03:01:30;;;;;;;34.65;16.55;;;9.80;99.90;;;;;;5052212;28;20395;-77
2022/06/03 03:04:17;;;;;;;39.35;15.52;;;9.80;99.90;;;;;;5051776;28;20088;-77
2022/06/03 03:06:55;;;;;;;33.53;15.18;;;9.70;99.90;;;;;;5051450;28;20045;-77
2022/06/03 03:09:48;;;;;;;37.53;15.70;;;9.70;99.90;;;;;;5050758;28;20485;-77
2022/06/03 03:12:38;;;;;;;33.10;15.00;;;9.70;99.90;;;;;;5051808;28;20531;-77
2022/06/03 03:15:28;;;;;;;34.25;15.20;;;9.70;99.90;;;;;;5052106;28;20045;-77
2022/06/03 03:18:51;;;;;;;32.38;15.50;;;9.70;99.90;;;;;;5051713;28;20049;-77
2022/06/03 03:21:36;;;;;;;36.28;14.63;;;9.80;99.90;;;;;;4991596;28;20138;-77
2022/06/03 03:24:22;;;;;;;31.55;15.65;;;9.80;99.90;;;;;;4975345;28;20185;-77
2022/06/03 03:27:12;;;;;;;28.13;14.60;;;9.80;99.90;;;;;;5044427;28;20416;-77
2022/06/03 03:29:46;;;;;;;32.55;16.15;;;9.80;99.90;;;;;;5051807;28;20053;-77
2022/06/03 03:32:42;;;;;;;33.75;15.85;;;9.80;99.90;;;;;;5054437;28;20045;-78
2022/06/03 03:35:39;;;;;;;28.92;15.10;;;9.80;99.90;;;;;;5055849;28;20103;-77
2022/06/03 03:38:07;;;;;;;34.65;15.75;;;9.90;99.90;;;;;;5056823;28;20069;-77
2022/06/03 03:41:00;;;;;;;37.13;16.08;;;9.90;99.90;;;;;;5056638;28;20416;-77
2022/06/03 03:43:44;;;;;;;37.88;15.50;;;10.00;99.90;;;;;;5056783;28;20045;-78
2022/06/03 03:46:46;;;;;;;32.20;14.15;;;10.00;99.90;;;;;;5055328;28;20056;-77
2022/06/03 03:49:50;;;;;;;34.80;14.38;;;10.00;99.90;;;;;;5055411;28;20045;-78
2022/06/03 03:52:57;;;;;;;33.22;13.95;;;10.00;99.90;;;;;;5054901;28;20048;-77
2022/06/03 03:55:58;;;;;;;34.45;13.73;;;10.00;99.90;;;;;;5044259;28;20060;-77
2022/06/03 03:58:56;;;;;;;30.63;13.20;;;10.10;99.90;;;;;;5056609;28;20103;-77
2022/06/03 04:02:05;;;;;;;32.08;13.63;;;10.10;99.90;;;;;;5055235;28;20396;-77
2022/06/03 04:05:00;;;;;;;33.50;14.18;;;10.20;99.90;;;;;;5029356;28;20103;-78
2022/06/03 04:07:44;;;;;;;28.65;13.05;;;10.20;99.90;;;;;;5056215;28;20053;-77
2022/06/03 04:10:52;;;;;;;34.67;13.27;;;10.30;99.90;;;;;;5054811;28;20087;-77
2022/06/03 04:13:42;;;;;;;35.03;14.23;;;10.40;99.90;;;;;;5056240;28;20045;-77
2022/06/03 04:16:45;;;;;;;28.30;13.40;;;10.50;99.90;;;;;;5055103;28;20131;-77
2022/06/03 04:19:49;;;;;;;23.90;11.98;;;10.70;99.90;;;;;;5054902;28;20124;-77
2022/06/03 04:22:40;;;;;;;27.20;12.85;;;10.80;99.90;;;;;;5054813;28;20131;-78
2022/06/03 04:25:47;;;;;;;24.13;11.75;;;11.00;99.90;;;;;;5054837;28;20507;-78
2022/06/03 04:28:40;;;;;;;24.77;12.07;;;11.00;99.90;;;;;;5043613;28;20144;-78
2022/06/03 04:31:05;;;;;;;29.17;11.20;;;11.10;99.90;;;;;;5054321;28;20053;-78
2022/06/03 04:33:58;;;;;;;22.38;10.88;;;11.20;99.90;;;;;;5055829;28;20049;-78
2022/06/03 04:37:18;;;;;;;23.55;10.40;;;11.30;99.90;;;;;;5054553;28;20044;-78
2022/06/03 04:40:11;;;;;;;18.15;10.63;;;11.60;99.90;;;;;;5039696;28;20141;-78
2022/06/03 04:43:12;;;;;;;16.42;9.40;;;11.70;99.90;;;;;;5053301;28;20435;-78
2022/06/03 04:46:36;;;;;;;19.33;10.05;;;11.80;99.90;;;;;;5054202;28;20052;-78
2022/06/03 04:49:20;;;;;;;17.15;8.95;;;11.90;99.90;;;;;;5042066;28;20055;-78
2022/06/03 04:52:18;;;;;;;16.67;9.20;;;12.00;99.90;;;;;;5053846;28;20041;-78
2022/06/03 04:55:30;;;;;;;16.75;8.23;;;12.00;99.90;;;;;;5055492;28;20049;-78
2022/06/03 04:58:14;;;;;;;19.88;9.10;;;12.00;99.90;;;;;;5053950;28;20060;-78
2022/06/03 05:01:05;;;;;;;14.75;8.35;;;12.10;99.90;;;;;;5055149;28;20389;-78
2022/06/03 05:04:12;;;;;;;14.02;8.68;;;12.30;99.90;;;;;;5044954;28;20114;-78
2022/06/03 05:07:11;;;;;;;17.88;8.32;;;12.40;99.90;;;;;;5053551;28;20410;-78
2022/06/03 05:09:46;;;;;;;12.77;7.57;;;12.60;99.90;;;;;;5053851;28;20385;-78
2022/06/03 05:12:31;;;;;;;18.35;8.40;;;12.80;99.90;;;;;;5054872;28;20051;-78
2022/06/03 05:15:36;;;;;;;15.02;8.25;;;13.00;99.90;;;;;;5053858;28;20064;-78
2022/06/03 05:18:20;;;;;;;14.02;7.78;;;13.20;99.90;;;;;;5053577;28;20489;-78
2022/06/03 05:21:04;;;;;;;;;;;13.20;99.90;;;;;;5054195;28;20063;-78
2022/06/03 05:23:39;;;;;;;12.70;6.78;;;13.40;99.90;;;;;;5053403;28;20015;-78
2022/06/03 05:26:41;;;;;;;13.98;6.55;;;13.50;99.90;;;;;;5053600;28;20051;-78
2022/06/03 05:29:30;;;;;;;11.45;6.65;;;13.70;99.90;;;;;;5054637;28;20049;-78
2022/06/03 05:32:25;;;;;;;12.50;5.45;;;13.80;99.90;;;;;;5053302;28;20045;-78
2022/06/03 05:34:56;;;;;;;9.45;5.72;;;14.00;99.90;;;;;;5054667;28;20484;-78
2022/06/03 05:37:59;;;;;;;12.13;5.40;;;14.10;99.90;;;;;;5053093;28;20045;-78
2022/06/03 05:40:31;;;;;;;11.85;5.32;;;14.30;99.90;;;;;;5053302;28;20041;-78
2022/06/03 05:43:27;;;;;;;10.10;5.30;;;14.30;99.90;;;;;;5053043;28;20143;-78
2022/06/03 05:46:05;;;;;;;7.25;5.10;;;14.30;99.90;;;;;;5054223;28;20044;-78
2022/06/03 05:49:02;;;;;;;8.10;4.60;;;14.50;99.90;;;;;;5054263;28;20091;-78
2022/06/03 05:51:40;;;;;;;9.13;4.57;;;14.80;99.90;;;;;;5054281;28;20055;-78
2022/06/03 05:54:17;;;;;;;7.22;4.25;;;14.90;99.90;;;;;;5052734;28;20064;-77
2022/06/03 05:56:56;;;;;;;8.05;4.78;;;15.00;99.90;;;;;;5053102;28;20045;-78
2022/06/03 05:59:56;;;;;;;10.30;5.13;;;15.20;99.90;;;;;;5052817;28;20122;-78
2022/06/03 06:02:32;;;;;;;8.07;4.50;;;15.20;99.90;;;;;;5053047;28;20114;-78
2022/06/03 06:05:14;;;;;;;7.57;4.10;;;15.10;99.90;;;;;;5052726;28;20397;-78
2022/06/03 06:08:14;;;;;;;5.78;3.92;;;15.40;99.90;;;;;;5054239;28;20037;-77
2022/06/03 06:10:58;;;;;;;7.03;3.95;;;15.50;99.90;;;;;;5052657;28;20052;-77
2022/06/03 06:13:48;;;;;;;10.18;3.92;;;15.70;99.90;;;;;;5054165;28;20064;-76
2022/06/03 06:16:19;;;;;;;8.23;4.20;;;15.80;99.90;;;;;;5052689;28;20067;-77
2022/06/03 06:19:33;;;;;;;7.53;3.40;;;15.70;99.90;;;;;;5052518;28;20044;-77
2022/06/03 06:22:11;;;;;;;8.63;3.55;;;15.70;99.90;;;;;;5052644;28;20084;-79
2022/06/03 06:25:13;;;;;;;7.13;3.40;;;16.00;99.90;;;;;;5052737;28;20599;-79
2022/06/03 06:27:57;;;;;;;7.00;3.72;;;16.10;99.90;;;;;;5052348;28;20049;-78
2022/06/03 06:30:47;;;;;;;7.07;3.47;;;16.10;99.90;;;;;;5052366;28;20078;-79
2022/06/03 06:33:40;;;;;;;6.35;3.58;;;16.30;99.90;;;;;;5051017;28;20114;-77
2022/06/03 06:36:39;;;;;;;8.03;3.93;;;16.40;99.90;;;;;;5040043;28;20534;-78
2022/06/03 06:39:41;;;;;;;4.88;3.03;;;16.30;99.90;;;;;;5051975;28;20296;-77
2022/06/03 06:42:25;;;;;;;5.90;3.50;;;16.50;99.90;;;;;;5044561;28;20535;-77
2022/06/03 06:45:21;;;;;;;6.80;3.35;;;16.50;99.90;;;;;;5048852;28;20033;-78
2022/06/03 06:47:56;;;;;;;9.32;3.10;;;16.40;99.90;;;;;;5043897;28;20069;-77
2022/06/03 06:50:50;;;;;;;6.28;3.15;;;16.50;99.90;;;;;;5051953;28;20060;-77
2022/06/03 06:53:21;;;;;;;9.73;4.05;;;16.40;99.90;;;;;;5051930;28;20052;-77
2022/06/03 06:56:13;;;;;;;8.23;4.97;;;16.30;99.90;;;;;;5051780;28;20053;-78
2022/06/03 06:58:57;;;;;;;8.82;4.82;;;16.40;99.90;;;;;;5051770;28;20056;-77
2022/06/03 07:01:26;;;;;;;;;;;16.50;99.90;;;;;;5052453;28;20053;-77
2022/06/03 07:04:00;;;;;;;8.93;4.47;;;16.50;99.90;;;;;;5052020;28;19927;-78
2022/06/03 07:06:43;;;;;;;6.97;4.32;;;16.50;99.90;;;;;;5053327;28;20053;-76
2022/06/03 07:09:27;;;;;;;6.75;4.38;;;16.80;99.90;;;;;;5055804;28;20040;-78
2022/06/03 07:12:05;;;;;;;9.38;4.55;;;16.90;99.90;;;;;;5055637;28;20049;-78
2022/06/03 07:14:38;;;;;;;8.38;4.30;;;17.10;99.90;;;;;;5055917;28;20489;-77
2022/06/03 07:19:55;;;;;;;12.30;5.60;;;17.00;99.90;;;;;;5057198;28;19971;-77
2022/06/03 07:22:20;;;;;;;10.40;5.30;;;17.10;99.90;;;;;;5055476;28;20084;-77
2022/06/03 07:24:57;;;;;;;12.73;6.70;;;16.90;99.90;;;;;;5056752;28;20493;-77
2022/06/03 07:27:31;;;;;;;8.18;5.43;;;17.00;99.90;;;;;;5056698;28;20443;-78
2022/06/03 07:30:16;;;;;;;9.15;4.95;;;17.40;99.90;;;;;;5056570;28;20041;-78
2022/06/03 07:32:49;;;;;;;10.43;5.43;;;17.30;99.90;;;;;;5056586;28;20484;-78
2022/06/03 07:35:37;;;;;;;11.90;5.07;;;17.60;99.90;;;;;;5055154;28;20087;-78
2022/06/03 07:38:27;;;;;;;7.57;4.47;;;17.80;99.90;;;;;;5056727;28;20040;-77
2022/06/03 07:41:11;;;;;;;11.18;4.68;;;17.70;99.90;;;;;;5055275;28;20041;-78
2022/06/03 07:43:47;;;;;;;9.20;4.43;;;17.70;99.90;;;;;;5055184;28;20049;-77
2022/06/03 07:46:19;;;;;;;7.88;3.92;;;17.80;99.90;;;;;;5054969;28;20041;-79
2022/06/03 07:48:45;;;;;;;8.27;3.72;;;18.10;99.90;;;;;;5054775;28;20504;-77
2022/06/03 07:51:33;;;;;;;6.40;3.47;;;18.10;99.90;;;;;;5051247;28;20073;-77
2022/06/03 07:54:11;;;;;;;6.00;3.20;;;18.30;99.90;;;;;;5045434;28;20048;-77
2022/06/03 07:56:37;;;;;;;6.95;3.08;;;18.40;99.90;;;;;;5037562;28;20489;-77
2022/06/03 07:59:12;;;;;;;6.03;3.30;;;18.20;99.90;;;;;;5036134;28;20049;-77
2022/06/03 08:01:42;;;;;;;6.18;3.58;;;17.70;99.90;;;;;;5034707;28;20482;-77
2022/06/03 08:04:24;;;;;;;7.28;3.15;;;18.20;99.90;;;;;;5034796;28;20053;-77
2022/06/03 08:12:31;;;;;;;5.63;3.28;;;18.00;99.90;;;;;;5034520;28;20611;-77
2022/06/03 08:14:57;;;;;;;4.95;3.08;;;18.00;99.90;;;;;;5036099;28;20044;-77
2022/06/03 08:17:25;;;;;;;6.93;3.58;;;17.80;99.90;;;;;;5034458;28;20041;-77
2022/06/03 08:19:52;;;;;;;6.63;3.42;;;17.60;99.90;;;;;;5041026;28;20060;-77
2022/06/03 08:22:22;;;;;;;5.78;3.00;;;17.80;99.90;;;;;;5055690;28;20064;-77
2022/06/03 08:24:55;;;;;;;7.18;3.33;;;18.00;99.90;;;;;;5054445;28;20045;-77
2022/06/03 08:27:25;;;;;;;10.35;4.15;;;18.30;99.90;;;;;;5055435;28;20499;-77
2022/06/03 08:29:58;;;;;;;7.93;3.58;;;18.30;99.90;;;;;;5054903;28;20041;-77
2022/06/03 08:32:54;;;;;;;7.55;2.83;;;18.20;99.90;;;;;;5054195;28;20492;-77
2022/06/03 08:35:24;;;;;;;7.07;3.35;;;18.40;99.90;;;;;;5055367;28;20159;-77
2022/06/03 08:37:51;;;;;;;6.35;3.38;;;18.60;99.90;;;;;;5054192;28;20049;-77
2022/06/03 08:40:34;;;;;;;7.43;4.15;;;18.30;99.90;;;;;;5054297;28;20067;-77
2022/06/03 08:43:14;;;;;;;10.13;4.00;;;18.30;99.90;;;;;;5054105;28;20049;-77
2022/06/03 08:45:49;;;;;;;7.65;4.13;;;18.10;99.90;;;;;;5054237;28;20555;-77
2022/06/03 08:48:19;;;;;;;9.40;4.35;;;18.20;99.90;;;;;;5054010;28;20045;-77
2022/06/03 08:50:47;;;;;;;5.72;4.25;;;18.40;99.90;;;;;;5053405;28;20045;-77
2022/06/03 08:53:43;;;;;;;10.45;4.78;;;18.40;99.90;;;;;;5053594;28;20049;-77
2022/06/03 08:56:14;;;;;;;8.93;4.65;;;18.40;99.90;;;;;;5053259;28;20454;-77
2022/06/03 08:58:56;;;;;;;9.02;4.93;;;18.40;99.90;;;;;;5052187;28;20037;-77
2022/06/03 09:01:27;;;;;;;9.73;5.03;;;18.70;99.90;;;;;;5052290;28;20144;-77
2022/06/03 09:04:05;;;;;;;8.90;5.15;;;18.70;99.90;;;;;;5052573;28;20052;-77
2022/06/03 09:07:07;;;;;;;8.88;5.28;;;18.90;99.90;;;;;;5054814;28;20492;-77
2022/06/03 09:10:11;;;;;;;13.45;5.90;;;18.70;99.90;;;;;;5053356;28;20443;-77
2022/06/03 09:12:40;;;;;;;16.25;7.30;;;18.70;99.90;;;;;;5053822;28;20044;-77
2022/06/03 09:15:13;;;;;;;10.73;5.80;;;18.50;99.90;;;;;;5053365;28;20051;-77
2022/06/03 09:17:51;;;;;;;12.25;6.70;;;18.60;99.90;;;;;;5053701;28;20480;-77
2022/06/03 09:20:25;;;;;;;10.82;5.90;;;18.50;99.90;;;;;;5052985;28;20412;-78
2022/06/03 09:23:01;;;;;;;13.30;6.88;;;18.10;99.90;;;;;;5053365;28;20106;-77
2022/06/03 09:25:31;;;;;;;11.82;5.75;;;18.10;99.90;;;;;;5054825;28;20040;-77
2022/06/03 09:27:59;;;;;;;14.25;5.78;;;18.10;99.90;;;;;;5054711;28;20045;-77
2022/06/03 09:30:32;;;;;;;10.40;5.00;;;18.40;99.90;;;;;;5052160;28;20470;-77
2022/06/03 09:33:01;;;;;;;10.68;5.10;;;18.50;99.90;;;;;;5053120;28;20107;-77
2022/06/03 09:35:27;;;;;;;7.28;4.75;;;18.30;99.90;;;;;;5053077;28;20103;-78
2022/06/03 09:37:58;;;;;;;7.65;4.60;;;18.30;99.90;;;;;;5052957;28;20045;-77
2022/06/03 09:40:45;;;;;;;9.98;5.40;;;18.70;99.90;;;;;;5053254;28;20076;-77
2022/06/03 09:43:36;;;;;;;5.75;3.85;;;18.60;99.90;;;;;;5052992;28;20051;-77
2022/06/03 09:46:04;;;;;;;7.65;4.30;;;18.40;99.90;;;;;;5049097;28;20088;-77
2022/06/03 09:48:34;;;;;;;10.90;5.03;;;18.70;99.90;;;;;;5052848;28;20049;-77
2022/06/03 09:51:25;;;;;;;8.30;5.20;;;18.60;99.90;;;;;;5053846;28;20079;-77
2022/06/03 09:53:51;;;;;;;10.43;5.43;;;18.70;99.90;;;;;;5052500;28;20055;-77
2022/06/03 09:56:26;;;;;;;9.65;6.35;;;18.60;99.90;;;;;;5052693;28;20103;-77
2022/06/03 09:58:59;;;;;;;13.05;5.78;;;18.60;99.90;;;;;;5053913;28;20435;-77
2022/06/03 10:01:24;;;;;;;12.93;6.40;;;18.40;99.90;;;;;;5052831;28;20052;-77
2022/06/03 10:04:03;;;;;;;11.40;6.93;;;18.60;99.90;;;;;;5052225;28;20451;-77
2022/06/03 10:06:47;;;;;;;13.63;6.32;;;18.70;99.90;;;;;;5052535;28;20133;-77
2022/06/03 10:17:42;;;;;;;13.93;6.15;;;19.40;99.90;;;;;;5051601;28;20080;-77
2022/06/03 10:20:09;;;;;;;18.65;6.65;;;19.50;99.90;;;;;;5051973;28;20048;-78
2022/06/03 10:22:34;;;;;;;10.10;6.35;;;19.00;99.90;;;;;;5052144;28;20081;-78
2022/06/03 10:25:00;;;;;;;12.55;6.35;;;18.90;99.90;;;;;;5052198;28;20076;-78
2022/06/03 10:27:26;;;;;;;15.02;7.25;;;19.10;99.90;;;;;;5052388;28;20055;-78
2022/06/03 10:29:51;;;;;;;10.75;6.93;;;19.30;99.90;;;;;;5051827;28;20139;-77
2022/06/03 10:32:21;;;;;;;17.23;7.40;;;19.30;99.90;;;;;;5052203;28;20514;-78
2022/06/03 10:34:47;;;;;;;15.18;7.07;;;19.00;99.90;;;;;;5052022;28;20049;-78
2022/06/03 10:37:19;;;;;;;16.98;7.50;;;19.10;99.90;;;;;;5052350;28;20059;-78
2022/06/03 10:39:45;;;;;;;11.83;7.30;;;19.20;99.90;;;;;;5053317;28;20400;-78
2022/06/03 10:42:19;;;;;;;12.38;5.60;;;18.90;99.90;;;;;;5051302;28;20465;-78
2022/06/03 10:44:54;;;;;;;14.75;5.80;;;19.20;99.90;;;;;;5052177;28;20096;-78
2022/06/03 10:47:22;;;;;;;12.65;6.10;;;19.40;99.90;;;;;;5053322;28;20037;-78
2022/06/03 10:50:01;;;;;;;9.50;5.60;;;19.60;99.90;;;;;;5051558;28;20052;-78
2022/06/03 11:01:23;;;;;;;10.25;5.32;;;19.80;99.90;;;;;;5044397;28;20502;-78
2022/06/03 11:03:51;;;;;;;9.15;4.72;;;19.40;99.90;;;;;;5053078;28;20045;-77
2022/06/03 11:06:23;;;;;;;14.43;4.72;;;19.20;99.90;;;;;;5053134;28;20090;-78
2022/06/03 11:08:58;;;;;;;14.43;5.03;;;19.60;99.90;;;;;;5050447;28;20041;-78
2022/06/03 11:11:47;;;;;;;10.95;4.93;;;19.60;99.90;;;;;;5051577;28;20128;-78
2022/06/03 11:14:21;;;;;;;12.80;5.65;;;19.50;99.90;;;;;;5050862;28;20158;-78
2022/06/03 11:16:58;;;;;;;14.50;6.15;;;19.60;99.90;;;;;;5052063;28;20049;-78
2022/06/03 11:19:24;;;;;;;13.07;5.53;;;19.40;99.90;;;;;;5051909;28;20052;-77
2022/06/03 11:22:12;;;;;;;16.67;6.03;;;19.60;99.90;;;;;;5051378;28;20431;-78
2022/06/03 11:24:38;;;;;;;17.27;6.72;;;19.80;99.90;;;;;;5052797;28;20036;-77
2022/06/03 11:27:07;;;;;;;16.55;6.32;;;19.40;99.90;;;;;;5052793;28;20554;-77
2022/06/03 11:29:37;;;;;;;12.75;5.68;;;19.60;99.90;;;;;;5052870;28;20036;-77
2022/06/03 11:32:05;;;;;;;20.05;6.82;;;20.00;99.90;;;;;;5051303;28;20102;-77
2022/06/03 11:34:47;;;;;;;16.48;6.25;;;19.90;99.90;;;;;;5052937;28;20086;-78
2022/06/03 11:37:24;;;;;;;20.88;6.43;;;20.00;99.90;;;;;;5051523;28;20052;-78
2022/06/03 11:40:01;;;;;;;18.58;6.65;;;20.30;99.90;;;;;;5051449;28;20127;-78
2022/06/03 11:42:46;;;;;;;14.50;6.22;;;20.50;99.90;;;;;;5051406;28;20400;-78
2022/06/03 11:45:17;;;;;;;18.05;6.25;;;19.90;99.90;;;;;;5052620;28;20158;-78
2022/06/03 11:47:52;;;;;;;13.20;6.22;;;19.30;99.90;;;;;;5051704;28;20051;-77
2022/06/03 11:50:21;;;;;;;14.05;6.00;;;19.40;99.90;;;;;;5052754;28;20045;-76
2022/06/03 11:52:49;;;;;;;14.65;6.50;;;19.80;99.90;;;;;;5054745;28;20053;-78
2022/06/03 11:55:15;;;;;;;17.70;5.78;;;19.70;99.90;;;;;;5054733;28;20056;-77
2022/06/03 11:57:57;;;;;;;25.85;7.38;;;19.70;99.90;;;;;;5054947;28;20049;-78
2022/06/03 12:00:26;;;;;;;9.43;5.90;;;19.30;99.90;;;;;;5056440;28;20049;-78
2022/06/03 12:03:18;;;;;;;17.20;6.75;;;19.70;99.90;;;;;;5054944;28;20055;-78
2022/06/03 12:05:49;;;;;;;15.05;6.43;;;19.80;99.90;;;;;;5054938;28;20080;-78
2022/06/03 12:08:30;;;;;;;14.68;6.00;;;20.20;99.90;;;;;;5056406;28;20084;-78
2022/06/03 12:13:14;;;;;;;17.00;6.15;;;19.30;99.90;;;;;;5056371;28;20041;-78
2022/06/03 12:14:25;;;;;;;20.17;5.65;;;19.60;99.90;;;;;;5055192;28;20060;-78
2022/06/03 12:17:26;;;;;;;13.57;6.32;;;19.80;99.90;;;;;;5054822;28;20496;-78
2022/06/03 12:19:54;;;;;;;11.75;5.45;;;19.80;99.90;;;;;;5048174;28;20094;-78
2022/06/03 12:22:28;;;;;;;11.48;5.20;;;20.00;99.90;;;;;;5056196;28;20077;-78
2022/06/03 12:24:55;;;;;;;18.02;5.53;;;20.20;99.90;;;;;;5056055;28;20053;-79
2022/06/03 12:27:41;;;;;;;13.63;5.57;;;20.40;99.90;;;;;;5054775;28;20091;-78
2022/06/03 12:30:14;;;;;;;15.20;6.07;;;20.20;99.90;;;;;;5054252;28;20060;-79
2022/06/03 12:32:50;;;;;;;16.45;5.97;;;20.20;99.90;;;;;;5055731;28;20056;-78
2022/06/03 12:35:45;;;;;;;10.90;5.30;;;20.10;99.90;;;;;;5054487;28;20053;-78
2022/06/03 12:38:19;;;;;;;10.43;5.05;;;20.50;99.90;;;;;;5054406;28;20044;-79
2022/06/03 12:40:57;;;;;;;12.85;5.75;;;20.10;99.90;;;;;;5054559;28;20057;-78
2022/06/03 12:43:29;;;;;;;13.57;5.28;;;20.20;99.90;;;;;;5055762;28;20053;-78
2022/06/03 12:46:07;;;;;;;11.83;4.83;;;20.20;99.90;;;;;;5055758;28;20053;-79
2022/06/03 12:48:40;;;;;;;16.30;5.43;;;20.00;99.90;;;;;;5055612;28;20303;-78
2022/06/03 12:51:25;;;;;;;14.38;5.18;;;20.00;99.90;;;;;;5055572;28;20045;-78
2022/06/03 12:54:14;;;;;;;16.48;5.80;;;20.00;99.90;;;;;;5055150;28;20061;-78
2022/06/03 12:56:46;;;;;;;14.63;5.50;;;20.00;99.90;;;;;;5054394;28;20120;-78
2022/06/03 12:59:31;;;;;;;;;;;19.80;99.90;;;;;;5054494;28;20132;-78
2022/06/03 13:02:24;;;;;;;15.35;6.00;;;20.00;99.90;;;;;;5054006;28;19927;-78
2022/06/03 13:04:52;;;;;;;13.27;6.03;;;20.20;99.90;;;;;;5053200;28;20462;-78
2022/06/03 13:07:27;;;;;;;16.15;5.75;;;19.80;99.90;;;;;;5053763;28;20049;-78
2022/06/03 13:10:02;;;;;;;14.50;6.25;;;19.90;99.90;;;;;;5054081;28;20084;-78
2022/06/03 13:12:31;;;;;;;16.08;6.18;;;20.00;99.90;;;;;;5053875;28;20048;-78
2022/06/03 13:15:17;;;;;;;16.08;6.13;;;19.70;99.90;;;;;;5055023;28;20047;-78
2022/06/03 13:21:02;;;;;;;18.58;6.22;;;19.20;99.90;;;;;;5031729;28;20136;-78
2022/06/03 13:23:51;;;;;;;11.43;6.07;;;19.60;99.90;;;;;;5053519;28;20135;-78
2022/06/03 13:26:20;;;;;;;22.63;6.03;;;19.80;99.90;;;;;;5053693;28;20037;-78
2022/06/03 13:28:54;;;;;;;14.52;6.32;;;19.70;99.90;;;;;;5053405;28;20480;-78
2022/06/03 13:31:23;;;;;;;17.15;6.47;;;20.00;99.90;;;;;;5053493;28;20449;-78
2022/06/03 13:34:10;;;;;;;18.95;7.03;;;19.10;99.90;;;;;;5054581;28;20045;-78
2022/06/03 13:36:51;;;;;;;16.33;6.05;;;19.10;99.90;;;;;;5053366;28;20041;-79
2022/06/03 13:39:23;;;;;;;15.10;6.50;;;19.30;99.90;;;;;;5053450;28;20151;-78
2022/06/03 13:44:47;;;;;;;14.45;5.57;;;19.40;99.90;;;;;;5054492;28;20144;-78
2022/06/03 13:47:19;;;;;;;15.55;6.40;;;19.30;99.90;;;;;;5053340;28;20067;-78
2022/06/03 13:49:47;;;;;;;11.90;5.50;;;18.90;99.90;;;;;;5053213;28;20053;-78
2022/06/03 13:52:19;;;;;;;15.95;6.68;;;19.00;99.90;;;;;;5052715;28;20377;-78
2022/06/03 13:54:49;;;;;;;17.13;6.40;;;19.30;99.90;;;;;;5052975;28;20044;-78
2022/06/03 13:57:18;;;;;;;15.55;6.88;;;19.50;99.90;;;;;;5053167;28;20162;-78
2022/06/03 13:59:44;;;;;;;18.88;7.00;;;19.70;99.90;;;;;;5052708;28;20048;-78
2022/06/03 14:02:16;;;;;;;13.75;5.88;;;19.40;99.90;;;;;;5052789;28;20041;-78
2022/06/03 14:04:49;;;;;;;21.75;6.72;;;19.20;99.90;;;;;;5052754;28;20136;-78
2022/06/03 14:07:24;;;;;;;16.75;7.65;;;19.10;99.90;;;;;;5054059;28;20088;-78
2022/06/03 14:09:53;;;;;;;17.77;6.70;;;19.00;99.90;;;;;;5052753;28;20052;-78
2022/06/03 14:12:32;;;;;;;20.88;6.53;;;19.20;99.90;;;;;;5052522;28;20053;-78
2022/06/03 14:15:19;;;;;;;16.83;6.82;;;19.40;99.90;;;;;;5052350;28;20124;-78
2022/06/03 14:17:45;;;;;;;14.15;6.93;;;19.30;99.90;;;;;;5053613;28;20507;-78
2022/06/03 14:20:21;;;;;;;21.45;7.03;;;19.00;99.90;;;;;;5052000;28;20044;-78
2022/06/03 14:23:10;;;;;;;18.02;7.13;;;19.30;99.90;;;;;;5052801;28;20115;-78
2022/06/03 14:25:39;;;;;;;24.00;7.07;;;18.40;99.90;;;;;;5052246;28;20418;-78
2022/06/03 14:28:16;;;;;;;13.70;7.03;;;18.30;99.90;;;;;;5052422;28;20057;-78
2022/06/03 14:30:48;;;;;;;14.00;6.93;;;18.70;99.90;;;;;;5052490;28;20500;-78